Time;durP1;ratioP1;P1;durP2;ratioP2;P2;SDS_P1;SDS_P2;PMS_P1;PMS_P2;Temp;Humidity;BMP_temperature;BMP_pressure;BME280_temperature;BME280_humidity;BME280_pressure;Samples;Min_cycle;Max_cycle;Signal;HPM_P1;HPM_P2
2022/08/16 00:01:32;;;;;;;21.30;18.20;;;20.00;99.90;;;20.10;100.00;100079.25;5027159;28;20427;-69
2022/08/16 00:04:08;;;;;;;23.60;17.27;;;20.00;99.90;;;20.03;100.00;100079.59;5022532;28;20468;-69
2022/08/16 00:06:38;;;;;;;23.53;20.20;;;20.00;99.90;;;19.93;100.00;100079.66;5022746;28;20461;-70
2022/08/16 00:09:09;;;;;;;21.60;17.33;;;19.90;99.90;;;19.95;100.00;100077.44;5045927;28;20480;-70
2022/08/16 00:11:44;;;;;;;21.13;18.77;;;19.90;99.90;;;19.87;100.00;100076.13;5020264;28;20435;-70
2022/08/16 00:14:18;;;;;;;20.10;17.50;;;19.90;99.90;;;19.94;100.00;100075.81;5034054;28;20443;-70
2022/08/16 00:16:48;;;;;;;21.07;18.77;;;19.80;99.90;;;19.97;100.00;100075.22;5025544;28;20841;-70
2022/08/16 00:19:37;;;;;;;24.80;19.50;;;19.90;99.90;;;20.04;100.00;100070.25;5021485;28;20436;-70
2022/08/16 00:22:10;;;;;;;27.20;18.87;;;19.90;99.90;;;20.06;100.00;100084.50;5018592;28;20415;-69
2022/08/16 00:24:43;;;;;;;19.70;16.77;;;20.00;99.90;;;20.17;100.00;100093.50;5025015;28;20446;-70
2022/08/16 00:27:15;;;;;;;21.53;18.07;;;20.00;99.90;;;20.18;100.00;100093.25;5028492;28;20464;-70
2022/08/16 00:29:45;;;;;;;21.53;18.93;;;20.10;99.90;;;19.96;100.00;100093.63;5052156;28;20446;-69
2022/08/16 00:32:15;;;;;;;27.53;18.13;;;19.90;99.90;;;19.91;100.00;100092.84;5036398;28;20421;-70
2022/08/16 00:34:46;;;;;;;26.20;20.03;;;19.90;99.90;;;20.06;100.00;100095.50;5036504;28;20524;-70
2022/08/16 00:37:24;;;;;;;23.20;18.00;;;19.90;99.90;;;20.02;100.00;100093.59;5050761;28;20421;-70
2022/08/16 00:40:19;;;;;;;20.40;17.87;;;19.90;99.90;;;19.88;100.00;100105.22;5031099;28;20436;-70
2022/08/16 00:43:08;;;;;;;19.20;16.63;;;19.80;99.90;;;19.88;100.00;100107.13;5029290;28;20422;-69
2022/08/16 00:45:57;;;;;;;26.27;19.17;;;19.80;99.90;;;19.80;100.00;100105.78;5033362;28;20480;-70
2022/08/16 00:48:30;;;;;;;23.27;19.50;;;19.80;99.90;;;19.75;100.00;100102.28;5029201;28;20467;-71
2022/08/16 00:51:12;;;;;;;22.70;18.57;;;19.70;99.90;;;19.71;100.00;100099.25;5050377;28;20437;-69
2022/08/16 00:53:46;;;;;;;21.90;17.50;;;19.70;99.90;;;19.79;100.00;100100.59;5031675;28;20953;-70
2022/08/16 00:56:22;;;;;;;17.63;14.60;;;19.70;99.90;;;19.71;100.00;100093.75;5045973;28;20452;-70
2022/08/16 00:59:15;;;;;;;16.33;13.80;;;19.70;99.90;;;19.68;100.00;100099.81;5041370;28;20421;-70
2022/08/16 01:01:45;;;;;;;16.93;15.13;;;19.60;99.90;;;19.64;100.00;100092.44;5026681;28;20462;-70
2022/08/16 01:04:21;;;;;;;19.57;14.83;;;19.60;99.90;;;19.69;100.00;100100.66;5029682;28;20837;-71
2022/08/16 01:07:00;;;;;;;18.63;14.53;;;19.50;99.90;;;19.58;100.00;100107.25;5025618;28;20837;-70
2022/08/16 01:09:32;;;;;;;18.00;16.10;;;19.50;99.90;;;19.59;100.00;100101.50;5024432;28;20484;-70
2022/08/16 01:12:07;;;;;;;20.50;13.80;;;19.50;99.90;;;19.44;100.00;100105.13;5023553;28;20434;-70
2022/08/16 01:14:51;;;;;;;18.07;14.30;;;19.40;99.90;;;19.39;100.00;100107.84;5023554;28;20455;-69
2022/08/16 01:17:23;;;;;;;16.20;14.50;;;19.40;99.90;;;19.25;100.00;100112.28;5029811;28;20460;-70
2022/08/16 01:19:58;;;;;;;20.60;16.00;;;19.30;99.90;;;19.25;100.00;100117.78;5026997;28;21009;-70
2022/08/16 01:22:42;;;;;;;17.00;13.67;;;19.20;99.90;;;19.22;100.00;100120.25;5035757;28;20421;-70
2022/08/16 01:25:33;;;;;;;16.37;14.63;;;19.20;99.90;;;19.22;100.00;100129.28;5030096;28;20459;-70
2022/08/16 01:28:11;;;;;;;17.97;12.93;;;19.20;99.90;;;19.23;100.00;100130.94;5031577;28;20454;-71
2022/08/16 01:30:55;;;;;;;16.47;13.40;;;19.20;99.90;;;19.19;100.00;100129.84;5022260;28;20906;-71
2022/08/16 01:33:25;;;;;;;17.53;14.20;;;19.20;99.90;;;19.15;100.00;100136.16;5029515;28;20987;-70
2022/08/16 01:36:07;;;;;;;18.63;13.93;;;19.10;99.90;;;19.15;100.00;100134.25;5029013;28;20847;-71
2022/08/16 01:38:43;;;;;;;19.20;14.40;;;19.10;99.90;;;19.19;100.00;100140.81;5029000;28;20536;-70
2022/08/16 01:41:30;;;;;;;20.83;14.27;;;19.10;99.90;;;19.25;100.00;100145.19;5029419;28;20936;-69
2022/08/16 01:44:03;;;;;;;18.07;14.63;;;19.20;99.90;;;19.08;100.00;100141.91;5030159;28;20941;-70
2022/08/16 01:46:37;;;;;;;18.23;15.40;;;19.10;99.90;;;18.97;100.00;100146.63;5033396;28;20411;-71
2022/08/16 01:49:17;;;;;;;18.53;15.33;;;19.00;99.90;;;18.97;100.00;100143.06;5017902;28;20477;-70
2022/08/16 01:51:51;;;;;;;16.87;14.30;;;19.00;99.90;;;18.92;100.00;100146.63;5027887;28;21075;-69
2022/08/16 01:54:28;;;;;;;16.87;14.60;;;18.90;99.90;;;18.90;100.00;100140.56;5030847;28;20448;-69
2022/08/16 01:57:03;;;;;;;16.13;13.77;;;18.90;99.90;;;19.00;100.00;100140.56;5029244;28;20427;-69
2022/08/16 01:59:34;;;;;;;18.80;15.63;;;18.90;99.90;;;19.04;100.00;100149.06;5018421;28;20414;-70
2022/08/16 02:02:05;;;;;;;21.07;16.40;;;19.00;99.90;;;19.03;100.00;100141.94;5031402;28;20419;-70
2022/08/16 02:04:54;;;;;;;22.73;18.70;;;19.00;99.90;;;18.99;100.00;100135.34;5022477;28;20448;-69
2022/08/16 02:07:26;;;;;;;18.37;15.20;;;19.00;99.90;;;18.93;100.00;100133.69;5021264;28;20427;-69
2022/08/16 02:09:58;;;;;;;17.93;14.80;;;18.90;99.90;;;18.97;100.00;100137.56;5031808;28;20455;-70
2022/08/16 02:12:41;;;;;;;18.93;15.63;;;18.90;99.90;;;19.14;100.00;100140.00;5025098;28;20468;-70
2022/08/16 02:15:27;;;;;;;19.83;17.40;;;19.00;99.90;;;19.07;100.00;100148.53;5027331;28;20458;-71
2022/08/16 02:18:00;;;;;;;17.80;15.63;;;19.00;99.90;;;18.96;100.00;100147.72;5049048;28;20480;-70
2022/08/16 02:20:34;;;;;;;20.57;17.57;;;19.00;99.90;;;19.10;100.00;100147.97;5038301;28;20470;-70
2022/08/16 02:23:08;;;;;;;17.80;15.83;;;19.10;99.90;;;18.97;100.00;100148.53;5030587;28;20968;-68
2022/08/16 02:25:38;;;;;;;17.07;15.20;;;19.00;99.90;;;18.93;100.00;100153.72;5040175;28;20421;-70
2022/08/16 02:28:25;;;;;;;19.90;16.77;;;18.90;99.90;;;18.92;100.00;100156.75;5031193;28;20458;-70
2022/08/16 02:30:58;;;;;;;22.67;18.50;;;18.90;99.90;;;18.98;100.00;100156.47;5028726;28;20847;-70
2022/08/16 02:33:28;;;;;;;17.07;14.03;;;18.90;99.90;;;18.99;100.00;100149.06;5026021;28;20457;-70
2022/08/16 02:36:29;;;;;;;19.77;16.90;;;18.90;99.90;;;18.96;100.00;100142.22;5023579;28;20419;-70
2022/08/16 02:39:19;;;;;;;17.80;16.00;;;18.90;99.90;;;18.91;100.00;100149.63;5036155;28;20497;-70
2022/08/16 02:41:53;;;;;;;19.83;16.27;;;18.90;99.90;;;18.85;100.00;100151.53;5024302;28;20431;-71
2022/08/16 02:44:25;;;;;;;19.00;15.93;;;18.90;99.90;;;18.87;100.00;100143.88;5023622;28;20542;-70
2022/08/16 02:46:57;;;;;;;20.70;15.53;;;18.80;99.90;;;18.98;100.00;100152.91;5033082;28;20769;-70
2022/08/16 02:49:29;;;;;;;20.37;16.73;;;18.90;99.90;;;19.02;100.00;100157.59;5031775;28;20550;-70
2022/08/16 02:52:18;;;;;;;19.87;16.60;;;18.90;99.90;;;19.00;100.00;100150.72;5029409;28;20445;-70
2022/08/16 02:55:04;;;;;;;17.93;15.57;;;18.90;99.90;;;18.82;100.00;100145.78;5046279;28;20431;-70
2022/08/16 02:57:33;;;;;;;18.33;16.33;;;18.80;99.90;;;18.78;100.00;100150.19;5033227;28;20453;-70
2022/08/16 03:00:09;;;;;;;21.27;18.07;;;18.80;99.90;;;18.75;100.00;100150.72;5030363;28;20717;-70
2022/08/16 03:02:58;;;;;;;20.77;16.70;;;18.80;99.90;;;18.64;100.00;100155.38;5032961;28;20460;-70
2022/08/16 03:05:28;;;;;;;20.00;17.10;;;18.60;99.90;;;18.65;100.00;100155.09;5023753;28;20459;-71
2022/08/16 03:08:01;;;;;;;18.93;16.77;;;18.70;99.90;;;18.85;100.00;100159.75;5031345;28;20791;-70
2022/08/16 03:10:37;;;;;;;23.13;18.33;;;18.80;99.90;;;18.69;100.00;100157.31;5023635;28;20457;-70
2022/08/16 03:13:07;;;;;;;24.40;17.37;;;18.70;99.90;;;18.60;100.00;100160.56;5033228;28;20508;-70
2022/08/16 03:15:43;;;;;;;22.30;17.40;;;18.60;99.90;;;18.72;100.00;100163.06;5022583;28;20517;-70
2022/08/16 03:18:18;;;;;;;22.53;17.90;;;18.60;99.90;;;18.73;100.00;100170.19;5028126;28;20455;-69
2022/08/16 03:21:07;;;;;;;23.57;17.83;;;18.70;99.90;;;18.98;100.00;100166.59;5050939;28;20904;-70
2022/08/16 03:23:38;;;;;;;24.17;18.90;;;18.80;99.90;;;18.85;100.00;100162.50;5032016;28;20425;-70
2022/08/16 03:26:08;;;;;;;21.40;17.13;;;18.80;99.90;;;18.72;100.00;100167.72;5030895;28;20442;-70
2022/08/16 03:28:38;;;;;;;24.20;17.53;;;18.70;99.90;;;18.66;100.00;100164.97;5038704;28;20450;-70
2022/08/16 03:31:09;;;;;;;25.37;16.30;;;18.70;99.90;;;18.63;100.00;100173.75;5032688;28;20520;-70
2022/08/16 03:33:42;;;;;;;24.47;19.37;;;18.60;99.90;;;18.58;100.00;100173.75;5039906;28;20437;-70
2022/08/16 03:36:13;;;;;;;23.83;19.00;;;18.60;99.90;;;18.54;100.00;100167.13;5029028;28;20436;-71
2022/08/16 03:39:03;;;;;;;21.93;18.20;;;18.50;99.90;;;18.60;100.00;100168.78;5031043;28;20954;-69
2022/08/16 03:41:40;;;;;;;23.40;19.30;;;18.60;99.90;;;18.67;100.00;100169.38;5029357;28;20484;-70
2022/08/16 03:44:21;;;;;;;20.40;17.10;;;18.60;99.90;;;18.61;100.00;100172.34;5023033;28;20496;-70
2022/08/16 03:47:13;;;;;;;21.57;18.07;;;18.60;99.90;;;18.53;100.00;100171.00;5019952;28;20431;-69
2022/08/16 03:49:50;;;;;;;23.53;18.50;;;18.50;99.90;;;18.63;100.00;100175.66;5024129;28;20446;-69
2022/08/16 03:52:22;;;;;;;22.03;19.70;;;18.60;99.90;;;18.61;100.00;100180.56;5028100;28;20521;-70
2022/08/16 03:55:00;;;;;;;21.53;17.93;;;18.60;99.90;;;18.58;100.00;100181.13;5028334;28;20685;-70
2022/08/16 03:57:31;;;;;;;20.30;17.50;;;18.60;99.90;;;18.54;100.00;100178.09;5027501;28;20774;-70
2022/08/16 04:00:15;;;;;;;24.03;19.13;;;18.50;99.90;;;18.56;100.00;100178.66;5016380;28;20547;-71
2022/08/16 04:03:08;;;;;;;22.10;19.10;;;18.50;99.90;;;18.58;100.00;100183.88;5021033;28;20464;-69
2022/08/16 04:05:47;;;;;;;21.37;18.40;;;18.50;99.90;;;18.62;100.00;100180.31;5027837;28;20506;-70
2022/08/16 04:08:20;;;;;;;26.13;20.27;;;18.60;99.90;;;18.79;100.00;100184.69;5020843;28;20480;-69
2022/08/16 04:10:58;;;;;;;19.53;17.40;;;18.60;99.90;;;18.76;100.00;100193.47;5050185;28;20694;-70
2022/08/16 04:13:30;;;;;;;23.10;19.17;;;18.70;99.90;;;18.79;100.00;100187.44;5024365;28;20487;-70
2022/08/16 04:16:21;;;;;;;22.30;17.60;;;18.70;99.90;;;18.90;100.00;100189.09;5027238;28;20591;-71
2022/08/16 04:19:02;;;;;;;21.17;17.90;;;18.70;99.90;;;19.08;100.00;100196.75;5016620;28;20526;-70
2022/08/16 04:21:36;;;;;;;22.37;18.40;;;18.80;99.90;;;19.14;100.00;100197.59;5023068;28;20422;-69
2022/08/16 04:24:20;;;;;;;22.17;18.87;;;18.90;99.90;;;19.57;100.00;100201.66;5025724;28;20978;-70
2022/08/16 04:26:57;;;;;;;24.70;17.83;;;19.00;99.90;;;19.95;100.00;100198.25;5027904;28;20426;-69
2022/08/16 04:29:27;;;;;;;26.70;22.67;;;19.30;99.90;;;20.65;100.00;100201.78;5030265;28;20441;-70
2022/08/16 04:32:14;;;;;;;24.80;20.00;;;19.60;99.90;;;21.43;94.82;100204.44;5026147;28;20803;-71
2022/08/16 04:34:51;;;;;;;24.03;19.20;;;19.90;99.90;;;22.01;88.43;100208.78;5035988;28;20997;-70
2022/08/16 04:37:21;;;;;;;24.30;17.80;;;20.30;99.90;;;22.51;86.48;100199.00;5028319;28;20426;-70
2022/08/16 04:39:56;;;;;;;21.27;18.60;;;20.70;99.90;;;22.72;83.46;100202.31;5038740;28;20509;-70
2022/08/16 04:42:26;;;;;;;21.07;18.77;;;21.20;99.90;;;23.10;80.77;100208.59;5039781;28;20997;-70
2022/08/16 04:45:04;;;;;;;20.83;18.63;;;21.50;99.90;;;23.55;76.87;100208.94;5029336;28;20444;-70
2022/08/16 04:47:35;;;;;;;18.60;16.23;;;21.80;99.90;;;24.00;73.82;100212.78;5037817;28;20781;-71
2022/08/16 04:50:17;;;;;;;19.20;17.17;;;22.20;99.90;;;24.40;71.45;100211.91;5031082;28;20828;-70
2022/08/16 04:52:59;;;;;;;21.47;17.57;;;22.40;99.90;;;24.46;71.74;100218.97;5031191;23;20524;-72
2022/08/16 04:55:33;;;;;;;23.20;18.47;;;22.20;99.90;;;24.72;70.85;100215.63;5005175;28;20536;-73
2022/08/16 04:58:08;;;;;;;21.57;16.60;;;22.20;99.90;;;25.18;69.06;100218.94;4988910;28;20567;-70
2022/08/16 05:00:59;;;;;;;20.60;15.30;;;23.00;99.90;;;25.55;67.06;100215.00;4975421;28;20440;-72
2022/08/16 05:03:30;;;;;;;20.67;15.70;;;23.50;99.90;;;25.82;66.71;100223.09;4974680;28;20434;-72
2022/08/16 05:06:01;;;;;;;17.80;15.07;;;23.60;99.90;;;26.13;65.06;100217.50;5005967;23;20504;-72
2022/08/16 05:08:35;;;;;;;21.00;17.20;;;23.70;99.90;;;26.51;63.47;100222.50;5019480;28;20451;-71
2022/08/16 05:11:21;;;;;;;18.20;15.00;;;24.20;99.90;;;26.75;61.99;100229.22;5019474;28;20472;-70
2022/08/16 05:13:51;;;;;;;18.40;15.57;;;24.30;99.90;;;26.76;62.17;100227.28;5011801;28;20534;-71
2022/08/16 05:16:25;;;;;;;17.13;14.30;;;24.20;99.90;;;27.27;60.06;100226.44;5015212;28;21017;-72
2022/08/16 05:19:06;;;;;;;15.47;13.80;;;24.40;99.90;;;27.27;59.91;100228.41;5031930;28;20444;-71
2022/08/16 05:21:46;;;;;;;18.53;14.97;;;24.80;99.90;;;27.04;59.63;100225.81;5032732;28;20468;-71
2022/08/16 05:24:15;;;;;;;16.83;14.27;;;24.30;99.90;;;25.52;65.33;100234.97;5036996;28;20963;-71
2022/08/16 05:26:52;;;;;;;15.23;13.63;;;23.90;99.90;;;24.44;69.44;100231.50;5030053;28;20463;-71
2022/08/16 05:29:21;;;;;;;16.97;15.23;;;23.90;99.90;;;23.74;72.48;100235.38;5016063;28;20539;-72
2022/08/16 05:32:14;;;;;;;15.80;14.13;;;23.50;99.90;;;22.93;77.47;100236.75;5014374;28;20992;-71
2022/08/16 05:35:08;;;;;;;19.67;15.67;;;22.70;99.90;;;22.86;75.81;100232.72;5014267;28;20455;-69
2022/08/16 05:37:46;;;;;;;16.03;14.37;;;22.50;99.90;;;22.74;78.64;100227.66;5015723;28;20463;-72
2022/08/16 05:40:17;;;;;;;20.67;17.93;;;22.40;99.90;;;22.69;79.61;100236.00;5032505;28;20427;-71
2022/08/16 05:42:49;;;;;;;24.40;17.93;;;22.40;99.90;;;22.64;79.80;100238.81;5032336;28;20448;-71
2022/08/16 05:45:20;;;;;;;17.83;15.40;;;22.20;99.90;;;22.71;79.70;100233.75;5014963;28;20423;-71
2022/08/16 05:47:55;;;;;;;18.57;16.53;;;22.20;99.90;;;22.80;79.25;100242.22;5015580;28;20462;-71
2022/08/16 05:50:36;;;;;;;17.23;15.00;;;22.40;99.90;;;22.93;79.85;100235.94;5011870;28;20978;-70
2022/08/16 05:53:11;;;;;;;17.83;13.60;;;22.50;99.90;;;22.92;77.11;100242.56;5029069;28;20448;-70
2022/08/16 05:55:57;;;;;;;18.20;15.67;;;22.40;99.90;;;23.02;78.40;100245.16;5015265;28;20487;-71
2022/08/16 05:58:26;;;;;;;18.17;16.20;;;22.50;99.90;;;23.10;75.80;100241.72;5031448;28;20477;-71
2022/08/16 06:01:01;;;;;;;16.77;14.47;;;22.50;99.90;;;23.16;75.99;100246.03;5015065;28;20444;-71
2022/08/16 06:03:31;;;;;;;17.03;15.23;;;22.60;99.90;;;23.23;73.86;100240.97;5014834;28;20452;-72
2022/08/16 06:06:05;;;;;;;16.63;14.30;;;22.70;99.90;;;23.22;75.14;100244.84;5014954;28;20491;-71
2022/08/16 06:08:39;;;;;;;17.23;14.77;;;22.70;99.90;;;23.34;74.94;100242.41;5015486;28;20452;-71
2022/08/16 06:11:12;;;;;;;16.47;14.60;;;22.90;99.90;;;23.41;74.35;100244.78;5031877;28;20603;-71
2022/08/16 06:13:48;;;;;;;22.17;16.47;;;22.80;99.90;;;23.49;74.27;100244.13;5015516;28;20455;-72
2022/08/16 06:16:26;;;;;;;18.93;16.93;;;22.90;99.90;;;23.53;74.79;100256.19;5009869;28;20967;-70
2022/08/16 06:18:59;;;;;;;17.53;15.83;;;23.00;99.90;;;23.69;74.47;100259.50;5015879;28;20452;-70
2022/08/16 06:21:34;;;;;;;24.80;17.73;;;23.20;99.90;;;23.83;72.63;100255.63;5011766;28;20945;-71
2022/08/16 06:24:07;;;;;;;18.37;16.43;;;23.30;99.90;;;23.82;72.24;100259.50;5013797;28;20457;-72
2022/08/16 06:26:56;;;;;;;23.93;16.70;;;23.20;99.90;;;23.87;72.39;100260.56;5029927;28;20463;-72
2022/08/16 06:29:31;;;;;;;23.57;18.87;;;23.30;99.90;;;24.12;71.84;100260.88;5031219;28;20885;-72
2022/08/16 06:32:01;;;;;;;22.53;17.37;;;23.60;99.90;;;24.09;71.82;100263.44;5011477;28;20470;-72
2022/08/16 06:34:32;;;;;;;16.73;15.03;;;23.60;99.90;;;24.19;70.17;100271.56;5014844;28;20543;-72
2022/08/16 06:37:21;;;;;;;18.50;15.70;;;23.70;99.90;;;24.28;70.46;100278.00;5010586;28;20473;-71
2022/08/16 06:39:51;;;;;;;19.90;17.90;;;23.80;99.90;;;24.34;71.03;100276.78;5009932;28;20511;-71
2022/08/16 06:42:33;;;;;;;17.13;15.33;;;23.80;99.90;;;24.43;69.46;100285.16;5027233;28;20482;-71
2022/08/16 06:45:36;;;;;;;17.03;15.37;;;23.90;99.90;;;24.61;68.34;100286.97;5026095;28;21144;-70
2022/08/16 06:48:20;;;;;;;20.57;17.87;;;24.10;99.90;;;24.76;68.12;100302.41;5014139;28;20452;-72
2022/08/16 06:51:04;;;;;;;18.90;16.20;;;24.30;99.90;;;24.71;66.86;100303.34;5028949;28;20509;-71
2022/08/16 06:53:35;;;;;;;16.03;14.37;;;24.20;99.90;;;24.76;67.24;100305.19;5013835;28;20848;-71
2022/08/16 06:56:09;;;;;;;16.07;14.00;;;24.30;99.90;;;24.88;67.14;100305.50;5028834;28;20468;-70
2022/08/16 06:58:58;;;;;;;16.60;14.70;;;24.30;99.90;;;25.01;65.96;100301.88;5014181;28;20487;-72
2022/08/16 07:01:34;;;;;;;24.17;14.23;;;24.40;99.90;;;25.07;65.96;100300.63;5028562;28;20448;-71
2022/08/16 07:04:14;;;;;;;16.50;14.83;;;24.50;99.90;;;25.13;64.22;100304.91;5028122;28;20831;-72
2022/08/16 07:07:05;;;;;;;15.07;13.50;;;24.60;99.90;;;25.07;63.74;100306.19;5023886;28;20476;-71
2022/08/16 07:09:39;;;;;;;14.10;12.80;;;24.70;99.90;;;25.15;63.43;100301.84;5010254;28;20440;-70
2022/08/16 07:12:11;;;;;;;16.50;14.30;;;24.70;99.90;;;25.03;63.65;100310.66;5031353;28;20460;-70
2022/08/16 07:14:46;;;;;;;15.43;13.93;;;24.70;99.90;;;25.05;63.96;100308.44;5029715;28;20853;-71
2022/08/16 07:17:20;;;;;;;16.17;14.27;;;24.70;99.90;;;25.36;63.99;100314.06;5013613;28;21136;-71
2022/08/16 07:19:54;;;;;;;16.03;14.37;;;24.90;99.90;;;25.47;63.44;100307.94;5010940;28;20540;-71
2022/08/16 07:22:55;;;;;;;13.60;12.20;;;25.10;99.90;;;25.59;62.94;100306.59;5028831;28;20479;-71
2022/08/16 07:25:32;;;;;;;14.03;12.67;;;25.10;99.90;;;25.88;61.15;100304.97;5013796;28;20448;-70
2022/08/16 07:28:17;;;;;;;16.43;14.33;;;25.30;98.50;;;25.71;61.03;100318.72;5011595;28;20451;-72
2022/08/16 07:30:49;;;;;;;17.47;15.67;;;25.40;94.70;;;25.73;60.07;100318.41;5027744;28;20444;-71
2022/08/16 07:33:27;;;;;;;20.73;14.30;;;25.40;92.50;;;25.87;59.95;100310.84;5015108;28;20482;-71
2022/08/16 07:36:18;;;;;;;15.80;12.27;;;25.50;91.30;;;25.92;59.31;100316.25;5010176;28;21018;-70
2022/08/16 07:38:51;;;;;;;14.03;12.57;;;25.40;90.50;;;26.08;60.14;100324.97;5013468;28;20467;-69
2022/08/16 07:41:21;;;;;;;13.20;11.70;;;25.60;92.40;;;26.18;58.88;100322.75;5011877;28;20498;-70
2022/08/16 07:43:59;;;;;;;16.63;15.03;;;25.70;86.70;;;26.36;59.32;100318.91;5027292;28;20467;-70
2022/08/16 07:46:31;;;;;;;14.40;12.53;;;25.90;90.40;;;26.48;58.57;100320.28;5026421;28;20529;-71
2022/08/16 07:49:22;;;;;;;15.77;14.13;;;26.10;86.30;;;26.66;58.30;100333.03;5029896;28;20486;-70
2022/08/16 07:51:52;;;;;;;16.13;14.40;;;26.20;83.50;;;26.71;57.94;100332.91;5012182;28;20467;-70
2022/08/16 07:54:27;;;;;;;13.80;12.40;;;26.30;81.10;;;26.79;58.00;100332.09;5008722;28;20459;-70
2022/08/16 07:57:03;;;;;;;13.97;12.67;;;26.40;82.90;;;26.85;57.13;100335.53;5012900;28;20521;-70
2022/08/16 07:59:35;;;;;;;17.90;15.43;;;26.40;72.20;;;26.88;57.62;100338.50;5012836;28;20527;-73
2022/08/16 08:02:17;;;;;;;15.70;13.30;;;26.40;74.30;;;26.89;57.24;100331.81;5013313;28;20440;-70
2022/08/16 08:04:54;;;;;;;18.57;14.70;;;26.40;71.40;;;26.86;58.28;100340.81;5013613;28;20710;-70
2022/08/16 08:07:28;;;;;;;14.90;13.40;;;26.40;79.10;;;26.81;58.16;100338.16;5013022;28;20475;-70
2022/08/16 08:10:02;;;;;;;15.37;13.63;;;26.30;78.50;;;26.86;58.20;100340.81;5031004;28;20519;-71
2022/08/16 08:12:34;;;;;;;15.47;13.87;;;26.40;78.70;;;26.95;58.35;100338.03;5040207;28;20468;-70
2022/08/16 08:15:10;;;;;;;15.93;14.27;;;26.50;77.90;;;26.99;56.90;100339.00;5023944;28;20502;-71
2022/08/16 08:17:42;;;;;;;17.10;14.10;;;26.60;69.60;;;26.94;57.04;100339.97;5018036;28;20447;-72
2022/08/16 08:20:25;;;;;;;14.07;12.67;;;26.60;67.40;;;27.00;57.82;100340.66;5019724;28;20468;-71
2022/08/16 08:23:01;;;;;;;13.47;12.10;;;26.70;73.20;;;27.17;57.23;100347.03;5022234;28;20451;-70
2022/08/16 08:25:38;;;;;;;14.97;12.83;;;26.80;72.00;;;27.34;57.28;100340.66;5020790;28;20475;-71
2022/08/16 08:28:24;;;;;;;15.13;13.53;;;26.90;72.20;;;27.17;56.67;100349.81;5043511;28;20523;-70
2022/08/16 08:31:02;;;;;;;13.73;12.43;;;26.80;67.40;;;27.36;57.08;100354.22;5025176;28;20853;-71
2022/08/16 08:33:37;;;;;;;15.43;13.90;;;26.90;68.50;;;27.59;56.19;100362.06;5020359;28;20509;-72
2022/08/16 08:36:17;;;;;;;14.43;12.93;;;27.20;65.00;;;27.60;55.40;100379.56;5035703;28;20483;-71
2022/08/16 08:38:52;;;;;;;12.97;11.73;;;27.20;59.50;;;27.57;55.24;100366.34;5015274;28;20447;-71
2022/08/16 08:41:27;;;;;;;15.77;14.07;;;27.20;58.80;;;27.70;55.57;100359.78;5013114;28;20569;-71
2022/08/16 08:43:59;;;;;;;16.27;14.57;;;27.30;59.20;;;27.79;56.00;100363.34;5031198;28;20455;-71
2022/08/16 08:46:50;;;;;;;14.00;11.57;;;27.40;58.50;;;27.85;54.90;100359.28;5013382;28;20480;-72
2022/08/16 08:49:30;;;;;;;12.03;10.83;;;27.40;56.40;;;28.05;53.46;100358.56;5032270;28;20452;-72
2022/08/16 08:52:19;;;;;;;13.63;12.20;;;27.60;50.70;;;28.01;52.07;100371.50;5029445;28;20956;-72
2022/08/16 08:55:13;;;;;;;12.20;11.00;;;27.70;43.00;;;28.01;53.35;100373.47;5033314;28;20502;-72
2022/08/16 08:57:46;;;;;;;13.57;12.27;;;27.50;45.10;;;28.13;52.50;100378.41;5032714;28;20451;-72
2022/08/16 09:00:20;;;;;;;12.77;11.50;;;27.60;43.80;;;28.19;52.79;100371.47;5034852;28;20441;-72
2022/08/16 09:02:58;;;;;;;13.00;11.80;;;27.70;43.20;;;28.02;51.69;100367.59;5033088;28;20451;-70
2022/08/16 09:05:34;;;;;;;11.63;10.50;;;27.70;38.90;;;28.17;52.53;100371.00;5011825;28;20439;-71
2022/08/16 09:08:07;;;;;;;15.03;11.07;;;27.80;40.30;;;28.43;50.97;100366.16;5012685;28;20455;-70
2022/08/16 09:10:56;;;;;;;17.00;12.60;;;27.90;36.40;;;28.39;51.02;100371.56;5012283;28;20529;-71
2022/08/16 09:13:32;;;;;;;14.10;11.93;;;28.10;35.70;;;27.89;51.59;100374.13;5032413;28;20467;-70
2022/08/16 09:16:03;;;;;;;14.03;12.53;;;27.80;33.20;;;27.97;51.59;100370.53;5011536;28;20472;-70
2022/08/16 09:18:34;;;;;;;12.57;11.43;;;27.60;35.70;;;28.26;51.45;100382.94;5027599;28;20452;-71
2022/08/16 09:21:07;;;;;;;12.47;10.70;;;27.80;36.90;;;28.23;51.06;100369.66;5024381;28;20804;-71
2022/08/16 09:23:39;;;;;;;12.50;11.20;;;27.80;35.10;;;28.25;50.63;100381.28;5033520;28;20534;-72
2022/08/16 09:26:14;;;;;;;13.47;12.17;;;27.90;33.30;;;28.20;51.16;100375.91;5015164;28;20506;-72
2022/08/16 09:29:04;;;;;;;12.93;11.70;;;27.90;33.00;;;28.38;50.79;100374.69;5030714;28;20790;-71
2022/08/16 09:31:46;;;;;;;11.77;10.57;;;27.80;33.80;;;28.58;49.31;100375.91;5025253;28;20475;-69
2022/08/16 09:34:23;;;;;;;11.90;9.50;;;28.00;30.50;;;28.70;49.41;100378.81;5039024;28;21074;-72
2022/08/16 09:36:54;;;;;;;11.63;10.57;;;28.10;29.80;;;28.76;49.34;100383.84;5038926;28;20841;-71
2022/08/16 09:39:25;;;;;;;11.93;10.40;;;28.20;29.80;;;28.97;48.85;100386.69;5032991;28;20847;-71
2022/08/16 09:42:10;;;;;;;12.37;11.17;;;28.40;29.20;;;28.95;47.89;100383.41;5038715;28;20447;-71
2022/08/16 09:44:43;;;;;;;11.23;10.03;;;28.50;26.10;;;29.10;47.93;100379.22;5035676;28;20948;-72
2022/08/16 09:47:32;;;;;;;11.47;9.53;;;28.60;26.00;;;29.29;47.13;100376.78;5033324;28;20491;-71
2022/08/16 09:50:24;;;;;;;10.43;9.53;;;28.80;24.90;;;29.31;47.95;100380.09;5038917;28;20475;-71
2022/08/16 09:52:53;;;;;;;10.43;9.53;;;28.80;24.50;;;28.93;47.26;100375.41;5031613;28;20468;-70
2022/08/16 09:55:22;;;;;;;10.63;9.73;;;28.60;22.80;;;28.98;47.64;100376.38;5033159;28;20538;-71
2022/08/16 09:57:53;;;;;;;10.47;9.47;;;28.60;23.30;;;29.11;46.67;100369.72;5032615;28;20436;-71
2022/08/16 10:00:23;;;;;;;10.30;9.33;;;28.70;22.00;;;29.30;46.51;100375.63;5032834;28;20440;-70
2022/08/16 10:03:12;;;;;;;12.37;11.20;;;28.80;21.70;;;29.38;46.10;100374.81;5028838;28;20459;-70
2022/08/16 10:05:42;;;;;;;11.43;10.40;;;28.90;21.10;;;29.48;46.06;100373.56;5032974;28;20468;-71
2022/08/16 10:08:11;;;;;;;11.83;10.80;;;28.90;20.40;;;29.65;45.30;100379.81;5033272;28;20437;-71
2022/08/16 10:13:52;;;;;;;10.53;9.50;;;29.30;19.40;;;30.17;44.65;100374.53;4971557;28;20482;-71
2022/08/16 10:16:22;;;;;;;10.97;9.93;;;29.60;18.40;;;29.71;43.24;100378.44;5019147;28;20475;-71
2022/08/16 10:18:53;;;;;;;9.27;8.47;;;29.50;14.90;;;29.51;43.66;100375.66;5031648;28;20964;-71
2022/08/16 10:21:36;;;;;;;12.47;9.40;;;29.30;14.60;;;29.16;44.25;100375.91;5028887;28;20519;-71
2022/08/16 10:24:06;;;;;;;12.83;9.23;;;29.10;14.90;;;28.81;45.50;100372.53;5028965;28;20791;-72
2022/08/16 10:26:37;;;;;;;10.90;9.80;;;28.60;16.30;;;28.67;46.19;100365.53;5032445;28;20479;-71
2022/08/16 10:29:26;;;;;;;12.83;11.57;;;28.40;17.00;;;28.45;46.52;100369.44;5031391;28;20979;-71
2022/08/16 10:32:15;;;;;;;11.10;10.10;;;28.20;17.20;;;28.17;47.11;100368.22;5031523;28;20446;-71
2022/08/16 10:34:48;;;;;;;16.07;12.50;;;27.90;18.20;;;28.39;47.43;100363.22;5032765;28;20750;-71
2022/08/16 10:37:21;;;;;;;10.63;9.70;;;28.00;19.50;;;28.62;46.47;100369.34;5012682;28;20571;-71
2022/08/16 10:40:06;;;;;;;10.43;9.43;;;28.10;18.80;;;29.09;45.62;100372.88;5027995;28;20462;-71
2022/08/16 10:42:57;;;;;;;9.90;9.00;;;28.40;18.40;;;29.38;45.27;100374.00;5030492;28;20471;-70